sensor_id;sensor_type;location;lat;lon;timestamp;P1;durP1;ratioP1;P2;durP2;ratioP2
38162;SDS011;23977;53.078;18.248;2024-01-30T00:01:14;37.60;;;16.65;;
38162;SDS011;23977;53.078;18.248;2024-01-30T00:03:50;37.47;;;18.20;;
38162;SDS011;23977;53.078;18.248;2024-01-30T00:06:24;38.95;;;17.88;;
38162;SDS011;23977;53.078;18.248;2024-01-30T00:08:50;34.70;;;17.25;;
38162;SDS011;23977;53.078;18.248;2024-01-30T00:11:18;38.55;;;17.73;;
38162;SDS011;23977;53.078;18.248;2024-01-30T00:13:45;40.45;;;19.23;;
38162;SDS011;23977;53.078;18.248;2024-01-30T00:16:21;39.33;;;18.55;;
38162;SDS011;23977;53.078;18.248;2024-01-30T00:18:53;39.53;;;19.17;;
38162;SDS011;23977;53.078;18.248;2024-01-30T00:21:24;44.85;;;19.52;;
38162;SDS011;23977;53.078;18.248;2024-01-30T00:23:50;45.75;;;19.73;;
38162;SDS011;23977;53.078;18.248;2024-01-30T00:26:16;42.80;;;19.50;;
38162;SDS011;23977;53.078;18.248;2024-01-30T00:28:42;36.90;;;17.92;;
38162;SDS011;23977;53.078;18.248;2024-01-30T00:31:10;33.75;;;17.00;;
38162;SDS011;23977;53.078;18.248;2024-01-30T00:33:39;38.20;;;18.20;;
38162;SDS011;23977;53.078;18.248;2024-01-30T00:36:17;37.00;;;18.13;;
38162;SDS011;23977;53.078;18.248;2024-01-30T00:38:43;52.58;;;23.33;;
38162;SDS011;23977;53.078;18.248;2024-01-30T00:41:11;48.83;;;22.35;;
38162;SDS011;23977;53.078;18.248;2024-01-30T00:43:37;46.72;;;21.08;;
38162;SDS011;23977;53.078;18.248;2024-01-30T00:46:05;45.50;;;21.13;;
38162;SDS011;23977;53.078;18.248;2024-01-30T00:48:30;44.50;;;20.52;;
38162;SDS011;23977;53.078;18.248;2024-01-30T00:50:56;46.58;;;20.35;;
38162;SDS011;23977;53.078;18.248;2024-01-30T00:53:22;41.80;;;19.83;;
38162;SDS011;23977;53.078;18.248;2024-01-30T00:55:48;41.72;;;18.67;;
38162;SDS011;23977;53.078;18.248;2024-01-30T00:58:15;41.40;;;19.67;;
38162;SDS011;23977;53.078;18.248;2024-01-30T01:00:42;42.22;;;19.55;;
38162;SDS011;23977;53.078;18.248;2024-01-30T01:03:07;40.85;;;19.15;;
38162;SDS011;23977;53.078;18.248;2024-01-30T01:05:33;41.22;;;19.58;;
38162;SDS011;23977;53.078;18.248;2024-01-30T01:07:59;37.55;;;18.10;;
38162;SDS011;23977;53.078;18.248;2024-01-30T01:10:25;36.05;;;18.55;;
38162;SDS011;23977;53.078;18.248;2024-01-30T01:12:53;36.67;;;18.25;;
38162;SDS011;23977;53.078;18.248;2024-01-30T01:15:19;35.22;;;17.60;;
38162;SDS011;23977;53.078;18.248;2024-01-30T01:17:45;34.58;;;16.95;;
38162;SDS011;23977;53.078;18.248;2024-01-30T01:20:11;34.97;;;16.77;;
38162;SDS011;23977;53.078;18.248;2024-01-30T01:22:37;35.35;;;16.95;;
38162;SDS011;23977;53.078;18.248;2024-01-30T01:25:04;38.58;;;18.58;;
38162;SDS011;23977;53.078;18.248;2024-01-30T01:27:32;37.90;;;17.85;;
38162;SDS011;23977;53.078;18.248;2024-01-30T01:30:00;38.47;;;18.65;;
38162;SDS011;23977;53.078;18.248;2024-01-30T01:32:25;40.30;;;18.30;;
38162;SDS011;23977;53.078;18.248;2024-01-30T01:34:51;40.28;;;19.25;;
38162;SDS011;23977;53.078;18.248;2024-01-30T01:37:17;37.17;;;19.25;;
38162;SDS011;23977;53.078;18.248;2024-01-30T01:39:43;40.15;;;19.77;;
38162;SDS011;23977;53.078;18.248;2024-01-30T01:42:09;37.22;;;18.30;;
38162;SDS011;23977;53.078;18.248;2024-01-30T01:44:35;39.97;;;18.83;;
38162;SDS011;23977;53.078;18.248;2024-01-30T01:47:00;39.42;;;19.38;;
38162;SDS011;23977;53.078;18.248;2024-01-30T01:49:28;39.00;;;18.45;;
38162;SDS011;23977;53.078;18.248;2024-01-30T01:51:55;37.42;;;18.50;;
38162;SDS011;23977;53.078;18.248;2024-01-30T01:54:22;37.08;;;19.00;;
38162;SDS011;23977;53.078;18.248;2024-01-30T01:56:49;36.38;;;18.70;;
38162;SDS011;23977;53.078;18.248;2024-01-30T01:59:17;38.80;;;17.58;;
38162;SDS011;23977;53.078;18.248;2024-01-30T02:01:43;41.00;;;18.55;;
38162;SDS011;23977;53.078;18.248;2024-01-30T02:04:11;35.75;;;17.60;;
38162;SDS011;23977;53.078;18.248;2024-01-30T02:06:36;38.58;;;18.00;;
38162;SDS011;23977;53.078;18.248;2024-01-30T02:09:03;37.88;;;17.95;;
38162;SDS011;23977;53.078;18.248;2024-01-30T02:11:29;32.22;;;16.92;;
38162;SDS011;23977;53.078;18.248;2024-01-30T02:14:04;34.42;;;16.98;;
38162;SDS011;23977;53.078;18.248;2024-01-30T02:16:30;38.53;;;17.65;;
38162;SDS011;23977;53.078;18.248;2024-01-30T02:18:56;36.55;;;17.75;;
38162;SDS011;23977;53.078;18.248;2024-01-30T02:21:22;34.58;;;17.67;;
38162;SDS011;23977;53.078;18.248;2024-01-30T02:23:48;37.55;;;17.77;;
38162;SDS011;23977;53.078;18.248;2024-01-30T02:26:14;35.75;;;18.30;;
38162;SDS011;23977;53.078;18.248;2024-01-30T02:28:40;34.88;;;17.52;;
38162;SDS011;23977;53.078;18.248;2024-01-30T02:31:05;34.60;;;17.60;;
38162;SDS011;23977;53.078;18.248;2024-01-30T02:33:32;35.38;;;18.23;;
38162;SDS011;23977;53.078;18.248;2024-01-30T02:35:57;37.97;;;17.67;;
38162;SDS011;23977;53.078;18.248;2024-01-30T02:38:24;33.95;;;17.15;;
38162;SDS011;23977;53.078;18.248;2024-01-30T02:40:52;35.47;;;17.75;;
38162;SDS011;23977;53.078;18.248;2024-01-30T02:43:17;32.95;;;16.85;;
38162;SDS011;23977;53.078;18.248;2024-01-30T02:45:43;34.78;;;17.08;;
38162;SDS011;23977;53.078;18.248;2024-01-30T02:48:09;35.88;;;16.85;;
38162;SDS011;23977;53.078;18.248;2024-01-30T02:50:34;33.22;;;16.50;;
38162;SDS011;23977;53.078;18.248;2024-01-30T02:53:00;32.78;;;16.35;;
38162;SDS011;23977;53.078;18.248;2024-01-30T02:55:26;33.03;;;16.60;;
38162;SDS011;23977;53.078;18.248;2024-01-30T02:57:52;32.20;;;16.10;;
38162;SDS011;23977;53.078;18.248;2024-01-30T03:00:18;36.25;;;16.52;;
38162;SDS011;23977;53.078;18.248;2024-01-30T03:02:46;33.95;;;15.95;;
38162;SDS011;23977;53.078;18.248;2024-01-30T03:05:11;32.85;;;15.95;;
38162;SDS011;23977;53.078;18.248;2024-01-30T03:07:37;38.58;;;16.85;;
38162;SDS011;23977;53.078;18.248;2024-01-30T03:10:04;34.30;;;15.98;;
38162;SDS011;23977;53.078;18.248;2024-01-30T03:12:32;30.98;;;15.68;;
38162;SDS011;23977;53.078;18.248;2024-01-30T03:14:57;32.25;;;16.15;;
38162;SDS011;23977;53.078;18.248;2024-01-30T03:17:23;36.67;;;16.35;;
38162;SDS011;23977;53.078;18.248;2024-01-30T03:19:49;33.03;;;16.13;;
38162;SDS011;23977;53.078;18.248;2024-01-30T03:22:15;33.20;;;16.08;;
38162;SDS011;23977;53.078;18.248;2024-01-30T03:24:41;37.08;;;16.80;;
38162;SDS011;23977;53.078;18.248;2024-01-30T03:27:07;30.75;;;15.63;;
38162;SDS011;23977;53.078;18.248;2024-01-30T03:29:33;31.85;;;16.50;;
38162;SDS011;23977;53.078;18.248;2024-01-30T03:31:59;33.63;;;16.25;;
38162;SDS011;23977;53.078;18.248;2024-01-30T03:34:24;33.08;;;17.33;;
38162;SDS011;23977;53.078;18.248;2024-01-30T03:36:50;35.60;;;17.23;;
38162;SDS011;23977;53.078;18.248;2024-01-30T03:39:16;36.00;;;17.77;;
38162;SDS011;23977;53.078;18.248;2024-01-30T03:41:42;32.92;;;17.33;;
38162;SDS011;23977;53.078;18.248;2024-01-30T03:44:09;37.30;;;17.25;;
38162;SDS011;23977;53.078;18.248;2024-01-30T03:46:35;33.80;;;16.67;;
38162;SDS011;23977;53.078;18.248;2024-01-30T03:49:01;36.05;;;16.85;;
38162;SDS011;23977;53.078;18.248;2024-01-30T03:51:28;32.45;;;16.77;;
38162;SDS011;23977;53.078;18.248;2024-01-30T03:53:53;34.35;;;16.85;;
38162;SDS011;23977;53.078;18.248;2024-01-30T03:56:19;36.30;;;17.00;;
38162;SDS011;23977;53.078;18.248;2024-01-30T03:58:45;35.25;;;17.20;;
38162;SDS011;23977;53.078;18.248;2024-01-30T04:01:14;36.08;;;17.17;;
38162;SDS011;23977;53.078;18.248;2024-01-30T04:03:40;34.78;;;16.85;;
38162;SDS011;23977;53.078;18.248;2024-01-30T04:06:06;36.03;;;17.80;;
38162;SDS011;23977;53.078;18.248;2024-01-30T04:08:33;35.15;;;17.63;;
38162;SDS011;23977;53.078;18.248;2024-01-30T04:11:13;37.22;;;17.55;;
38162;SDS011;23977;53.078;18.248;2024-01-30T04:13:39;38.05;;;17.98;;
38162;SDS011;23977;53.078;18.248;2024-01-30T04:16:05;34.92;;;17.83;;
38162;SDS011;23977;53.078;18.248;2024-01-30T04:18:35;40.95;;;18.95;;
38162;SDS011;23977;53.078;18.248;2024-01-30T04:21:01;37.42;;;18.10;;
38162;SDS011;23977;53.078;18.248;2024-01-30T04:23:27;38.22;;;18.23;;
38162;SDS011;23977;53.078;18.248;2024-01-30T04:25:52;40.00;;;18.33;;
38162;SDS011;23977;53.078;18.248;2024-01-30T04:28:18;34.80;;;18.08;;
38162;SDS011;23977;53.078;18.248;2024-01-30T04:30:43;37.80;;;18.40;;
38162;SDS011;23977;53.078;18.248;2024-01-30T04:33:10;34.78;;;18.05;;
38162;SDS011;23977;53.078;18.248;2024-01-30T04:35:35;36.38;;;17.58;;
38162;SDS011;23977;53.078;18.248;2024-01-30T04:38:01;36.67;;;17.88;;
38162;SDS011;23977;53.078;18.248;2024-01-30T04:40:27;35.10;;;17.17;;
38162;SDS011;23977;53.078;18.248;2024-01-30T04:42:52;34.22;;;16.85;;
38162;SDS011;23977;53.078;18.248;2024-01-30T04:45:18;34.83;;;17.20;;
38162;SDS011;23977;53.078;18.248;2024-01-30T04:47:44;37.00;;;17.40;;
38162;SDS011;23977;53.078;18.248;2024-01-30T04:50:09;34.58;;;17.27;;
38162;SDS011;23977;53.078;18.248;2024-01-30T04:52:35;35.58;;;17.17;;
38162;SDS011;23977;53.078;18.248;2024-01-30T04:55:01;36.95;;;17.38;;
38162;SDS011;23977;53.078;18.248;2024-01-30T04:57:28;35.90;;;16.85;;
38162;SDS011;23977;53.078;18.248;2024-01-30T04:59:54;36.28;;;16.95;;
38162;SDS011;23977;53.078;18.248;2024-01-30T05:02:20;35.83;;;16.95;;
38162;SDS011;23977;53.078;18.248;2024-01-30T05:04:47;32.25;;;16.73;;
38162;SDS011;23977;53.078;18.248;2024-01-30T05:07:16;33.90;;;17.67;;
38162;SDS011;23977;53.078;18.248;2024-01-30T05:09:43;34.15;;;16.27;;
38162;SDS011;23977;53.078;18.248;2024-01-30T05:12:10;33.03;;;16.33;;
38162;SDS011;23977;53.078;18.248;2024-01-30T05:14:35;31.25;;;16.58;;
38162;SDS011;23977;53.078;18.248;2024-01-30T05:17:01;34.97;;;16.35;;
38162;SDS011;23977;53.078;18.248;2024-01-30T05:19:29;31.98;;;16.95;;
38162;SDS011;23977;53.078;18.248;2024-01-30T05:21:55;36.25;;;17.08;;
38162;SDS011;23977;53.078;18.248;2024-01-30T05:24:21;35.20;;;17.85;;
38162;SDS011;23977;53.078;18.248;2024-01-30T05:26:47;35.05;;;17.38;;
38162;SDS011;23977;53.078;18.248;2024-01-30T05:29:14;34.88;;;17.77;;
38162;SDS011;23977;53.078;18.248;2024-01-30T05:31:40;35.55;;;17.25;;
38162;SDS011;23977;53.078;18.248;2024-01-30T05:34:06;36.25;;;17.17;;
38162;SDS011;23977;53.078;18.248;2024-01-30T05:36:34;34.30;;;17.52;;
38162;SDS011;23977;53.078;18.248;2024-01-30T05:39:00;33.25;;;16.38;;
38162;SDS011;23977;53.078;18.248;2024-01-30T05:41:27;35.45;;;17.08;;
38162;SDS011;23977;53.078;18.248;2024-01-30T05:43:55;33.58;;;16.73;;
38162;SDS011;23977;53.078;18.248;2024-01-30T05:46:23;34.75;;;16.85;;
38162;SDS011;23977;53.078;18.248;2024-01-30T05:48:52;31.58;;;17.17;;
38162;SDS011;23977;53.078;18.248;2024-01-30T05:51:20;34.63;;;16.60;;
38162;SDS011;23977;53.078;18.248;2024-01-30T05:54:06;34.25;;;16.20;;
38162;SDS011;23977;53.078;18.248;2024-01-30T05:56:33;33.35;;;16.33;;
38162;SDS011;23977;53.078;18.248;2024-01-30T05:58:59;35.25;;;16.55;;
38162;SDS011;23977;53.078;18.248;2024-01-30T06:01:30;36.50;;;17.27;;
38162;SDS011;23977;53.078;18.248;2024-01-30T06:03:56;31.90;;;16.77;;
38162;SDS011;23977;53.078;18.248;2024-01-30T06:06:24;33.40;;;17.30;;
38162;SDS011;23977;53.078;18.248;2024-01-30T06:24:04;33.00;;;16.48;;
38162;SDS011;23977;53.078;18.248;2024-01-30T15:41:11;30.65;;;15.95;;
38162;SDS011;23977;53.078;18.248;2024-01-30T15:46:28;28.30;;;14.02;;
38162;SDS011;23977;53.078;18.248;2024-01-30T15:48:57;29.25;;;15.13;;
38162;SDS011;23977;53.078;18.248;2024-01-30T15:51:23;28.00;;;15.00;;
38162;SDS011;23977;53.078;18.248;2024-01-30T23:26:25;34.13;;;18.33;;
